Terminal Aerodrome Forecast
Issued by NWS Duluth, MN

Home | Current Version | Previous Version | Text Only | Print | Product List | Glossary On
Versions: 1 2 3 4 5 6 7 8 9 10 11 12 13 14 15 16 17 18 19 20 21 22 23 24 25 26 27 28 29 30 31
000
FTUS43 KDLH 241300 AAB
TAFDLH
TAF AMD
KDLH 241334Z 2414/2512 29004KT P6SM FEW020 OVC110
     FM241500 28006KT P6SM SCT025 BKN040
     FM241800 30005KT 6SM -SN BR BKN015
      TEMPO 2419/2423 1SM -SN BR OVC008
     FM250100 07012G18KT 5SM -SN BR BKN008
     FM250400 08014G20KT P6SM OVC012=

USA.gov is the U.S. government's official web portal to all federal, state and local government web resources and services.